Terminal Aerodrome Forecast
Issued by NWS

Home | Current Version | Previous Version | Graphics & Text | Print | Product List | Glossary On
Versions: 1 2 3 4 5 6 7 8 9 10 11 12 13 14 15 16 17 18 19 20 21
000
FTUS43 KBIS 232331
TAFMOT
TAF
KMOT 232331Z 2400/2424 33009KT P6SM OVC150
     FM240500 34007KT 5SM BR BKN080
     FM240700 35007KT 1 1/2SM BR SCT015
     FM240900 35007KT 1/2SM FG BKN008
     FM241200 35005KT 3/4SM BR OVC005
     FM241600 06005KT P6SM BKN008
     FM241900 10006KT P6SM SCT015=

USA.gov is the U.S. government's official web portal to all federal, state and local government web resources and services.